sensor_id;sensor_type;location;lat;lon;timestamp;temperature;humidity
72650;SHT31;61467;50.674;4.618;2024-02-26T00:00:58;7.46;81.64
72650;SHT31;61467;50.674;4.618;2024-02-26T00:03:25;7.64;81.06
72650;SHT31;61467;50.674;4.618;2024-02-26T00:05:52;7.46;81.72
72650;SHT31;61467;50.674;4.618;2024-02-26T00:08:19;7.39;82.19
72650;SHT31;61467;50.674;4.618;2024-02-26T00:10:45;7.29;82.51
72650;SHT31;61467;50.674;4.618;2024-02-26T00:13:12;7.16;82.87
72650;SHT31;61467;50.674;4.618;2024-02-26T00:15:39;7.13;83.28
72650;SHT31;61467;50.674;4.618;2024-02-26T00:18:15;7.39;82.67
72650;SHT31;61467;50.674;4.618;2024-02-26T00:20:42;7.26;82.66
72650;SHT31;61467;50.674;4.618;2024-02-26T00:23:09;7.06;83.34
72650;SHT31;61467;50.674;4.618;2024-02-26T00:25:36;7.08;83.33
72650;SHT31;61467;50.674;4.618;2024-02-26T00:28:04;7.30;83.09
72650;SHT31;61467;50.674;4.618;2024-02-26T00:30:30;7.09;83.37
72650;SHT31;61467;50.674;4.618;2024-02-26T00:32:58;7.11;83.57
72650;SHT31;61467;50.674;4.618;2024-02-26T00:35:26;6.94;83.77
72650;SHT31;61467;50.674;4.618;2024-02-26T00:37:53;6.85;84.06
72650;SHT31;61467;50.674;4.618;2024-02-26T00:40:20;7.01;83.61
72650;SHT31;61467;50.674;4.618;2024-02-26T00:42:49;6.95;83.67
72650;SHT31;61467;50.674;4.618;2024-02-26T00:45:16;6.99;83.77
72650;SHT31;61467;50.674;4.618;2024-02-26T00:47:42;6.77;84.30
72650;SHT31;61467;50.674;4.618;2024-02-26T00:50:10;6.77;84.66
72650;SHT31;61467;50.674;4.618;2024-02-26T00:52:39;7.02;83.96
72650;SHT31;61467;50.674;4.618;2024-02-26T00:55:06;6.95;84.00
72650;SHT31;61467;50.674;4.618;2024-02-26T00:57:33;6.87;83.99
72650;SHT31;61467;50.674;4.618;2024-02-26T01:00:00;6.95;84.03
72650;SHT31;61467;50.674;4.618;2024-02-26T01:02:27;6.88;83.69
72650;SHT31;61467;50.674;4.618;2024-02-26T01:04:54;6.91;84.06
72650;SHT31;61467;50.674;4.618;2024-02-26T01:07:21;6.85;84.04
72650;SHT31;61467;50.674;4.618;2024-02-26T01:09:49;6.84;84.15
72650;SHT31;61467;50.674;4.618;2024-02-26T01:12:16;6.78;84.40
72650;SHT31;61467;50.674;4.618;2024-02-26T01:14:42;6.87;84.30
72650;SHT31;61467;50.674;4.618;2024-02-26T01:17:10;6.96;84.39
72650;SHT31;61467;50.674;4.618;2024-02-26T01:19:37;6.85;84.19
72650;SHT31;61467;50.674;4.618;2024-02-26T01:22:04;6.94;83.88
72650;SHT31;61467;50.674;4.618;2024-02-26T01:24:30;6.70;84.43
72650;SHT31;61467;50.674;4.618;2024-02-26T01:26:59;6.75;84.24
72650;SHT31;61467;50.674;4.618;2024-02-26T01:29:28;6.74;84.27
72650;SHT31;61467;50.674;4.618;2024-02-26T01:31:54;6.68;84.53
72650;SHT31;61467;50.674;4.618;2024-02-26T01:34:21;6.84;83.85
72650;SHT31;61467;50.674;4.618;2024-02-26T01:36:48;6.72;84.15
72650;SHT31;61467;50.674;4.618;2024-02-26T01:39:15;6.71;84.01
72650;SHT31;61467;50.674;4.618;2024-02-26T01:41:42;6.78;83.93
72650;SHT31;61467;50.674;4.618;2024-02-26T01:44:12;6.91;83.48
72650;SHT31;61467;50.674;4.618;2024-02-26T01:46:39;6.88;83.33
72650;SHT31;61467;50.674;4.618;2024-02-26T01:49:06;6.82;83.62
72650;SHT31;61467;50.674;4.618;2024-02-26T01:51:35;6.78;83.61
72650;SHT31;61467;50.674;4.618;2024-02-26T01:54:03;6.78;83.87
72650;SHT31;61467;50.674;4.618;2024-02-26T01:56:32;6.87;83.57
72650;SHT31;61467;50.674;4.618;2024-02-26T01:58:59;6.77;84.00
72650;SHT31;61467;50.674;4.618;2024-02-26T02:01:27;6.81;83.88
72650;SHT31;61467;50.674;4.618;2024-02-26T02:03:57;6.88;83.57
72650;SHT31;61467;50.674;4.618;2024-02-26T02:06:25;6.80;83.72
72650;SHT31;61467;50.674;4.618;2024-02-26T02:08:54;6.91;83.87
72650;SHT31;61467;50.674;4.618;2024-02-26T02:11:21;6.80;84.06
72650;SHT31;61467;50.674;4.618;2024-02-26T02:13:47;6.94;84.15
72650;SHT31;61467;50.674;4.618;2024-02-26T02:16:14;6.98;84.05
72650;SHT31;61467;50.674;4.618;2024-02-26T02:18:43;6.71;84.21
72650;SHT31;61467;50.674;4.618;2024-02-26T02:21:11;6.77;84.74
72650;SHT31;61467;50.674;4.618;2024-02-26T02:23:37;6.78;84.53
72650;SHT31;61467;50.674;4.618;2024-02-26T02:26:08;6.60;84.51
72650;SHT31;61467;50.674;4.618;2024-02-26T02:28:34;6.74;84.56
72650;SHT31;61467;50.674;4.618;2024-02-26T02:31:01;6.64;84.75
72650;SHT31;61467;50.674;4.618;2024-02-26T02:33:30;6.61;84.74
72650;SHT31;61467;50.674;4.618;2024-02-26T02:35:57;6.70;84.71
72650;SHT31;61467;50.674;4.618;2024-02-26T02:38:25;6.57;85.07
72650;SHT31;61467;50.674;4.618;2024-02-26T02:40:55;6.72;85.04
72650;SHT31;61467;50.674;4.618;2024-02-26T02:43:22;6.78;84.62
72650;SHT31;61467;50.674;4.618;2024-02-26T02:45:48;6.51;85.62
72650;SHT31;61467;50.674;4.618;2024-02-26T02:48:16;6.67;85.70
72650;SHT31;61467;50.674;4.618;2024-02-26T02:50:43;6.63;85.78
72650;SHT31;61467;50.674;4.618;2024-02-26T02:53:10;6.58;85.70
72650;SHT31;61467;50.674;4.618;2024-02-26T02:55:38;6.72;85.39
72650;SHT31;61467;50.674;4.618;2024-02-26T02:58:05;6.74;85.35
72650;SHT31;61467;50.674;4.618;2024-02-26T03:00:31;6.63;85.65
72650;SHT31;61467;50.674;4.618;2024-02-26T03:02:58;6.64;85.83
72650;SHT31;61467;50.674;4.618;2024-02-26T03:05:25;6.70;85.64
72650;SHT31;61467;50.674;4.618;2024-02-26T03:07:52;6.55;86.12
72650;SHT31;61467;50.674;4.618;2024-02-26T03:10:19;6.75;85.80
72650;SHT31;61467;50.674;4.618;2024-02-26T03:12:47;6.60;85.86
72650;SHT31;61467;50.674;4.618;2024-02-26T03:15:14;6.58;85.87
72650;SHT31;61467;50.674;4.618;2024-02-26T03:17:41;6.51;86.07
72650;SHT31;61467;50.674;4.618;2024-02-26T03:20:09;6.55;86.67
72650;SHT31;61467;50.674;4.618;2024-02-26T03:22:38;6.53;86.67
72650;SHT31;61467;50.674;4.618;2024-02-26T03:25:06;6.40;87.14
72650;SHT31;61467;50.674;4.618;2024-02-26T03:27:32;6.45;87.04
72650;SHT31;61467;50.674;4.618;2024-02-26T03:30:02;6.48;87.03
72650;SHT31;61467;50.674;4.618;2024-02-26T03:32:29;6.37;86.95
72650;SHT31;61467;50.674;4.618;2024-02-26T03:34:55;6.48;87.02
72650;SHT31;61467;50.674;4.618;2024-02-26T03:37:22;6.45;87.09
72650;SHT31;61467;50.674;4.618;2024-02-26T03:39:49;6.40;87.16
72650;SHT31;61467;50.674;4.618;2024-02-26T03:42:17;6.32;87.56
72650;SHT31;61467;50.674;4.618;2024-02-26T03:44:44;6.43;87.22
72650;SHT31;61467;50.674;4.618;2024-02-26T03:47:13;6.34;87.27
72650;SHT31;61467;50.674;4.618;2024-02-26T03:49:40;6.30;87.29
72650;SHT31;61467;50.674;4.618;2024-02-26T03:52:07;6.53;87.26
72650;SHT31;61467;50.674;4.618;2024-02-26T03:54:33;6.50;87.01
72650;SHT31;61467;50.674;4.618;2024-02-26T03:57:00;6.44;87.07
72650;SHT31;61467;50.674;4.618;2024-02-26T03:59:27;6.50;87.12
72650;SHT31;61467;50.674;4.618;2024-02-26T04:01:54;6.48;87.22
72650;SHT31;61467;50.674;4.618;2024-02-26T04:04:22;6.45;87.03
72650;SHT31;61467;50.674;4.618;2024-02-26T04:06:49;6.34;87.12
72650;SHT31;61467;50.674;4.618;2024-02-26T04:09:16;6.53;86.88
72650;SHT31;61467;50.674;4.618;2024-02-26T04:11:42;6.55;86.70
72650;SHT31;61467;50.674;4.618;2024-02-26T04:14:09;6.61;86.50
72650;SHT31;61467;50.674;4.618;2024-02-26T04:16:37;6.36;86.98
72650;SHT31;61467;50.674;4.618;2024-02-26T04:19:05;6.36;87.00
72650;SHT31;61467;50.674;4.618;2024-02-26T04:21:34;6.44;87.24
72650;SHT31;61467;50.674;4.618;2024-02-26T04:24:02;6.33;87.31
72650;SHT31;61467;50.674;4.618;2024-02-26T04:26:30;6.58;86.88
72650;SHT31;61467;50.674;4.618;2024-02-26T04:28:57;6.54;86.58
72650;SHT31;61467;50.674;4.618;2024-02-26T04:31:24;6.43;86.81
72650;SHT31;61467;50.674;4.618;2024-02-26T04:33:51;6.44;86.98
72650;SHT31;61467;50.674;4.618;2024-02-26T04:36:19;6.47;86.78
72650;SHT31;61467;50.674;4.618;2024-02-26T04:38:48;6.48;86.83
72650;SHT31;61467;50.674;4.618;2024-02-26T04:41:15;6.33;87.30
72650;SHT31;61467;50.674;4.618;2024-02-26T04:43:42;6.38;87.27
72650;SHT31;61467;50.674;4.618;2024-02-26T04:46:08;6.41;87.00
72650;SHT31;61467;50.674;4.618;2024-02-26T04:48:35;6.55;86.97
72650;SHT31;61467;50.674;4.618;2024-02-26T04:51:04;6.43;86.73
72650;SHT31;61467;50.674;4.618;2024-02-26T04:53:31;6.53;86.93
72650;SHT31;61467;50.674;4.618;2024-02-26T04:55:59;6.51;86.76
72650;SHT31;61467;50.674;4.618;2024-02-26T04:58:26;6.45;86.99
72650;SHT31;61467;50.674;4.618;2024-02-26T05:00:52;6.44;87.46
72650;SHT31;61467;50.674;4.618;2024-02-26T05:03:19;6.54;87.21
72650;SHT31;61467;50.674;4.618;2024-02-26T05:05:46;6.55;86.81
72650;SHT31;61467;50.674;4.618;2024-02-26T05:08:13;6.64;86.89
72650;SHT31;61467;50.674;4.618;2024-02-26T05:10:40;6.47;86.98
72650;SHT31;61467;50.674;4.618;2024-02-26T05:13:10;6.36;87.49
72650;SHT31;61467;50.674;4.618;2024-02-26T05:15:36;6.32;87.40
72650;SHT31;61467;50.674;4.618;2024-02-26T05:18:03;6.33;87.58
72650;SHT31;61467;50.674;4.618;2024-02-26T05:20:30;6.20;87.71
72650;SHT31;61467;50.674;4.618;2024-02-26T05:23:01;6.32;87.94
72650;SHT31;61467;50.674;4.618;2024-02-26T05:25:30;6.34;87.98
72650;SHT31;61467;50.674;4.618;2024-02-26T05:27:57;6.30;88.01
72650;SHT31;61467;50.674;4.618;2024-02-26T05:30:25;6.38;87.98
72650;SHT31;61467;50.674;4.618;2024-02-26T05:32:53;6.29;87.89
72650;SHT31;61467;50.674;4.618;2024-02-26T05:35:20;6.33;88.00
72650;SHT31;61467;50.674;4.618;2024-02-26T05:37:47;6.19;88.25
72650;SHT31;61467;50.674;4.618;2024-02-26T05:40:14;6.43;87.95
72650;SHT31;61467;50.674;4.618;2024-02-26T05:42:41;6.26;87.83
72650;SHT31;61467;50.674;4.618;2024-02-26T05:45:10;6.24;88.10
72650;SHT31;61467;50.674;4.618;2024-02-26T05:47:38;6.40;87.74
72650;SHT31;61467;50.674;4.618;2024-02-26T05:50:08;6.33;87.66
72650;SHT31;61467;50.674;4.618;2024-02-26T05:52:36;6.30;87.92
72650;SHT31;61467;50.674;4.618;2024-02-26T05:55:04;6.38;87.53
72650;SHT31;61467;50.674;4.618;2024-02-26T05:57:32;6.45;87.26
72650;SHT31;61467;50.674;4.618;2024-02-26T05:59:58;6.29;87.41
72650;SHT31;61467;50.674;4.618;2024-02-26T06:02:29;6.41;87.22
72650;SHT31;61467;50.674;4.618;2024-02-26T06:04:57;6.41;87.34
72650;SHT31;61467;50.674;4.618;2024-02-26T06:07:24;6.48;87.03
72650;SHT31;61467;50.674;4.618;2024-02-26T06:09:52;6.55;86.98
72650;SHT31;61467;50.674;4.618;2024-02-26T06:12:19;6.58;86.38
72650;SHT31;61467;50.674;4.618;2024-02-26T06:14:45;6.41;86.74
72650;SHT31;61467;50.674;4.618;2024-02-26T06:17:12;6.45;86.70
72650;SHT31;61467;50.674;4.618;2024-02-26T06:19:40;6.38;86.69
72650;SHT31;61467;50.674;4.618;2024-02-26T06:22:08;6.45;86.82
72650;SHT31;61467;50.674;4.618;2024-02-26T06:24:34;6.27;87.14
72650;SHT31;61467;50.674;4.618;2024-02-26T06:27:02;6.40;86.85
72650;SHT31;61467;50.674;4.618;2024-02-26T06:29:29;6.29;87.11
72650;SHT31;61467;50.674;4.618;2024-02-26T06:31:56;6.24;87.46
72650;SHT31;61467;50.674;4.618;2024-02-26T06:34:23;6.37;87.24
72650;SHT31;61467;50.674;4.618;2024-02-26T06:36:50;6.54;87.01
72650;SHT31;61467;50.674;4.618;2024-02-26T06:39:18;6.44;86.87
72650;SHT31;61467;50.674;4.618;2024-02-26T06:41:45;6.38;87.06
72650;SHT31;61467;50.674;4.618;2024-02-26T06:44:13;6.34;87.01
72650;SHT31;61467;50.674;4.618;2024-02-26T06:46:40;6.43;87.28
72650;SHT31;61467;50.674;4.618;2024-02-26T06:49:07;6.37;86.90
72650;SHT31;61467;50.674;4.618;2024-02-26T06:51:34;6.44;87.02
72650;SHT31;61467;50.674;4.618;2024-02-26T06:54:00;6.32;87.29
72650;SHT31;61467;50.674;4.618;2024-02-26T06:56:29;6.43;87.15
72650;SHT31;61467;50.674;4.618;2024-02-26T06:58:56;6.40;86.97
72650;SHT31;61467;50.674;4.618;2024-02-26T07:01:23;6.51;87.14
72650;SHT31;61467;50.674;4.618;2024-02-26T07:03:49;6.36;87.30
72650;SHT31;61467;50.674;4.618;2024-02-26T07:06:16;6.36;87.37
72650;SHT31;61467;50.674;4.618;2024-02-26T07:08:43;6.33;87.60
72650;SHT31;61467;50.674;4.618;2024-02-26T07:11:10;6.43;87.40
72650;SHT31;61467;50.674;4.618;2024-02-26T07:13:38;6.51;87.04
72650;SHT31;61467;50.674;4.618;2024-02-26T07:16:05;6.38;87.44
72650;SHT31;61467;50.674;4.618;2024-02-26T07:18:32;6.43;86.87
72650;SHT31;61467;50.674;4.618;2024-02-26T07:21:01;6.45;87.10
72650;SHT31;61467;50.674;4.618;2024-02-26T07:23:29;6.32;87.08
72650;SHT31;61467;50.674;4.618;2024-02-26T07:25:56;6.26;87.14
72650;SHT31;61467;50.674;4.618;2024-02-26T07:28:23;6.22;87.48
72650;SHT31;61467;50.674;4.618;2024-02-26T07:30:51;6.22;87.61
72650;SHT31;61467;50.674;4.618;2024-02-26T07:33:18;6.27;87.63
72650;SHT31;61467;50.674;4.618;2024-02-26T07:35:45;6.34;87.48
72650;SHT31;61467;50.674;4.618;2024-02-26T07:38:11;6.27;87.37
72650;SHT31;61467;50.674;4.618;2024-02-26T07:40:39;6.20;87.74
72650;SHT31;61467;50.674;4.618;2024-02-26T07:43:06;6.27;87.76
72650;SHT31;61467;50.674;4.618;2024-02-26T07:45:33;6.16;87.82
72650;SHT31;61467;50.674;4.618;2024-02-26T07:48:04;6.33;87.39
72650;SHT31;61467;50.674;4.618;2024-02-26T07:50:31;6.33;87.31
72650;SHT31;61467;50.674;4.618;2024-02-26T07:52:57;6.29;87.47
72650;SHT31;61467;50.674;4.618;2024-02-26T07:55:24;6.40;87.26
72650;SHT31;61467;50.674;4.618;2024-02-26T07:57:51;6.30;87.25
72650;SHT31;61467;50.674;4.618;2024-02-26T08:00:18;6.23;87.22
72650;SHT31;61467;50.674;4.618;2024-02-26T08:02:45;6.33;87.51
72650;SHT31;61467;50.674;4.618;2024-02-26T08:05:13;6.29;87.40
72650;SHT31;61467;50.674;4.618;2024-02-26T08:07:40;6.16;87.73
72650;SHT31;61467;50.674;4.618;2024-02-26T08:10:08;6.23;87.72
72650;SHT31;61467;50.674;4.618;2024-02-26T08:12:35;6.16;88.02
72650;SHT31;61467;50.674;4.618;2024-02-26T08:15:02;6.32;87.89
72650;SHT31;61467;50.674;4.618;2024-02-26T08:17:29;6.14;88.00
72650;SHT31;61467;50.674;4.618;2024-02-26T08:19:55;6.20;87.85
72650;SHT31;61467;50.674;4.618;2024-02-26T08:22:24;6.23;87.84
72650;SHT31;61467;50.674;4.618;2024-02-26T08:24:51;6.17;87.53
72650;SHT31;61467;50.674;4.618;2024-02-26T08:27:17;6.20;87.69
72650;SHT31;61467;50.674;4.618;2024-02-26T08:29:44;6.30;87.53
72650;SHT31;61467;50.674;4.618;2024-02-26T08:32:11;6.30;87.33
72650;SHT31;61467;50.674;4.618;2024-02-26T08:34:37;6.23;87.17
72650;SHT31;61467;50.674;4.618;2024-02-26T08:37:05;6.23;87.23
72650;SHT31;61467;50.674;4.618;2024-02-26T08:39:34;6.19;87.52
72650;SHT31;61467;50.674;4.618;2024-02-26T08:42:00;6.27;87.68
72650;SHT31;61467;50.674;4.618;2024-02-26T08:44:27;6.37;86.97
72650;SHT31;61467;50.674;4.618;2024-02-26T08:46:54;6.30;86.76
72650;SHT31;61467;50.674;4.618;2024-02-26T08:49:21;6.34;86.81
72650;SHT31;61467;50.674;4.618;2024-02-26T08:51:48;6.44;86.61
72650;SHT31;61467;50.674;4.618;2024-02-26T08:54:15;6.33;86.92
72650;SHT31;61467;50.674;4.618;2024-02-26T08:56:43;6.24;86.79
72650;SHT31;61467;50.674;4.618;2024-02-26T08:59:10;6.41;86.54
72650;SHT31;61467;50.674;4.618;2024-02-26T09:01:37;6.41;86.48
72650;SHT31;61467;50.674;4.618;2024-02-26T09:04:03;6.37;86.57
72650;SHT31;61467;50.674;4.618;2024-02-26T09:06:30;6.36;86.77
72650;SHT31;61467;50.674;4.618;2024-02-26T09:08:57;6.43;86.60
72650;SHT31;61467;50.674;4.618;2024-02-26T09:11:24;6.37;86.16
72650;SHT31;61467;50.674;4.618;2024-02-26T09:13:52;6.54;86.29
72650;SHT31;61467;50.674;4.618;2024-02-26T09:16:19;6.67;86.03
72650;SHT31;61467;50.674;4.618;2024-02-26T09:18:45;6.50;86.71
72650;SHT31;61467;50.674;4.618;2024-02-26T09:21:13;6.37;86.76
72650;SHT31;61467;50.674;4.618;2024-02-26T09:23:40;6.55;86.58
72650;SHT31;61467;50.674;4.618;2024-02-26T09:26:07;6.51;86.48
72650;SHT31;61467;50.674;4.618;2024-02-26T09:28:34;6.44;86.72
72650;SHT31;61467;50.674;4.618;2024-02-26T09:31:04;6.50;86.28
72650;SHT31;61467;50.674;4.618;2024-02-26T09:33:31;6.48;86.57
72650;SHT31;61467;50.674;4.618;2024-02-26T09:35:58;6.57;86.53
72650;SHT31;61467;50.674;4.618;2024-02-26T09:38:26;6.54;85.85
72650;SHT31;61467;50.674;4.618;2024-02-26T09:40:52;6.50;85.84
72650;SHT31;61467;50.674;4.618;2024-02-26T09:43:22;6.41;86.39
72650;SHT31;61467;50.674;4.618;2024-02-26T09:45:50;6.48;86.49
72650;SHT31;61467;50.674;4.618;2024-02-26T09:48:18;6.54;86.16
72650;SHT31;61467;50.674;4.618;2024-02-26T09:50:46;6.48;86.38
72650;SHT31;61467;50.674;4.618;2024-02-26T09:53:13;6.68;86.14
72650;SHT31;61467;50.674;4.618;2024-02-26T09:55:41;6.60;86.10
72650;SHT31;61467;50.674;4.618;2024-02-26T09:58:08;6.60;86.21
72650;SHT31;61467;50.674;4.618;2024-02-26T10:00:40;6.34;86.32
72650;SHT31;61467;50.674;4.618;2024-02-26T10:03:13;6.48;86.75
72650;SHT31;61467;50.674;4.618;2024-02-26T10:05:43;6.34;86.57
72650;SHT31;61467;50.674;4.618;2024-02-26T10:08:12;6.38;87.08
72650;SHT31;61467;50.674;4.618;2024-02-26T10:10:39;6.38;87.08
72650;SHT31;61467;50.674;4.618;2024-02-26T10:13:07;6.45;86.97
72650;SHT31;61467;50.674;4.618;2024-02-26T10:15:37;6.54;86.52
72650;SHT31;61467;50.674;4.618;2024-02-26T10:18:06;6.51;86.65
72650;SHT31;61467;50.674;4.618;2024-02-26T10:20:33;6.64;86.63
72650;SHT31;61467;50.674;4.618;2024-02-26T10:23:04;6.58;86.33
72650;SHT31;61467;50.674;4.618;2024-02-26T10:25:31;6.65;86.28
72650;SHT31;61467;50.674;4.618;2024-02-26T10:28:00;6.51;86.09
72650;SHT31;61467;50.674;4.618;2024-02-26T10:30:28;6.37;86.59
72650;SHT31;61467;50.674;4.618;2024-02-26T10:32:56;6.40;86.37
72650;SHT31;61467;50.674;4.618;2024-02-26T10:35:23;6.44;86.80
72650;SHT31;61467;50.674;4.618;2024-02-26T10:37:50;6.54;86.56
72650;SHT31;61467;50.674;4.618;2024-02-26T10:40:18;6.36;86.58
72650;SHT31;61467;50.674;4.618;2024-02-26T10:42:45;6.43;86.41
72650;SHT31;61467;50.674;4.618;2024-02-26T10:45:12;6.75;86.16
72650;SHT31;61467;50.674;4.618;2024-02-26T10:47:40;6.74;85.87
72650;SHT31;61467;50.674;4.618;2024-02-26T10:50:08;6.53;86.08
72650;SHT31;61467;50.674;4.618;2024-02-26T10:52:35;6.68;86.36
72650;SHT31;61467;50.674;4.618;2024-02-26T10:55:03;6.60;85.87
72650;SHT31;61467;50.674;4.618;2024-02-26T10:57:36;6.65;85.66
72650;SHT31;61467;50.674;4.618;2024-02-26T11:00:06;6.74;85.50
72650;SHT31;61467;50.674;4.618;2024-02-26T11:02:36;6.68;85.72
72650;SHT31;61467;50.674;4.618;2024-02-26T11:05:03;6.65;85.45
72650;SHT31;61467;50.674;4.618;2024-02-26T11:07:31;6.71;85.50
72650;SHT31;61467;50.674;4.618;2024-02-26T11:09:59;6.67;85.99
72650;SHT31;61467;50.674;4.618;2024-02-26T11:12:27;6.63;86.24
72650;SHT31;61467;50.674;4.618;2024-02-26T11:14:57;6.74;85.92
72650;SHT31;61467;50.674;4.618;2024-02-26T11:17:27;6.75;85.55
72650;SHT31;61467;50.674;4.618;2024-02-26T11:19:57;6.94;85.12
72650;SHT31;61467;50.674;4.618;2024-02-26T11:22:24;6.81;85.04
72650;SHT31;61467;50.674;4.618;2024-02-26T11:24:52;6.64;85.49
72650;SHT31;61467;50.674;4.618;2024-02-26T11:27:21;6.85;85.57
72650;SHT31;61467;50.674;4.618;2024-02-26T11:29:52;6.87;84.81
72650;SHT31;61467;50.674;4.618;2024-02-26T11:32:20;6.84;84.61
72650;SHT31;61467;50.674;4.618;2024-02-26T11:34:47;6.84;84.31
72650;SHT31;61467;50.674;4.618;2024-02-26T11:37:16;6.70;84.63
72650;SHT31;61467;50.674;4.618;2024-02-26T11:39:45;6.82;84.47
72650;SHT31;61467;50.674;4.618;2024-02-26T11:42:14;6.71;84.44
72650;SHT31;61467;50.674;4.618;2024-02-26T11:44:44;6.60;85.10
72650;SHT31;61467;50.674;4.618;2024-02-26T11:47:12;6.80;84.99
72650;SHT31;61467;50.674;4.618;2024-02-26T11:49:40;6.64;84.98
72650;SHT31;61467;50.674;4.618;2024-02-26T11:52:08;6.54;84.96
72650;SHT31;61467;50.674;4.618;2024-02-26T11:54:39;6.65;84.83
72650;SHT31;61467;50.674;4.618;2024-02-26T11:57:20;6.63;84.25
72650;SHT31;61467;50.674;4.618;2024-02-26T11:59:48;6.45;85.05
72650;SHT31;61467;50.674;4.618;2024-02-26T12:02:44;6.47;85.11
72650;SHT31;61467;50.674;4.618;2024-02-26T12:05:15;6.36;84.56
72650;SHT31;61467;50.674;4.618;2024-02-26T12:07:44;6.63;84.64
72650;SHT31;61467;50.674;4.618;2024-02-26T12:10:24;6.65;84.10
72650;SHT31;61467;50.674;4.618;2024-02-26T12:12:59;6.54;84.50
72650;SHT31;61467;50.674;4.618;2024-02-26T12:15:31;6.58;84.49
72650;SHT31;61467;50.674;4.618;2024-02-26T12:18:01;6.57;84.46
72650;SHT31;61467;50.674;4.618;2024-02-26T12:20:30;6.58;84.49
72650;SHT31;61467;50.674;4.618;2024-02-26T12:22:57;6.58;84.45
72650;SHT31;61467;50.674;4.618;2024-02-26T12:25:25;6.53;84.36
72650;SHT31;61467;50.674;4.618;2024-02-26T12:27:53;6.81;84.10
72650;SHT31;61467;50.674;4.618;2024-02-26T12:30:20;6.65;84.04
72650;SHT31;61467;50.674;4.618;2024-02-26T12:32:47;6.50;84.13
72650;SHT31;61467;50.674;4.618;2024-02-26T12:35:15;6.36;85.01
72650;SHT31;61467;50.674;4.618;2024-02-26T12:37:44;6.48;84.90
72650;SHT31;61467;50.674;4.618;2024-02-26T12:40:11;6.45;84.60
72650;SHT31;61467;50.674;4.618;2024-02-26T12:42:38;6.50;84.18
72650;SHT31;61467;50.674;4.618;2024-02-26T12:45:07;6.71;84.08
72650;SHT31;61467;50.674;4.618;2024-02-26T12:47:38;6.43;84.72
72650;SHT31;61467;50.674;4.618;2024-02-26T12:50:05;6.61;84.15
72650;SHT31;61467;50.674;4.618;2024-02-26T12:52:32;6.44;84.59
72650;SHT31;61467;50.674;4.618;2024-02-26T12:55:02;6.43;84.97
72650;SHT31;61467;50.674;4.618;2024-02-26T12:57:30;6.44;84.72
72650;SHT31;61467;50.674;4.618;2024-02-26T12:59:57;6.40;84.70
72650;SHT31;61467;50.674;4.618;2024-02-26T13:02:25;6.51;84.49
72650;SHT31;61467;50.674;4.618;2024-02-26T13:04:52;6.23;85.44
72650;SHT31;61467;50.674;4.618;2024-02-26T13:07:20;6.14;85.25
72650;SHT31;61467;50.674;4.618;2024-02-26T13:09:47;6.38;85.73
72650;SHT31;61467;50.674;4.618;2024-02-26T13:12:16;6.57;84.56
72650;SHT31;61467;50.674;4.618;2024-02-26T13:14:43;6.34;84.70
72650;SHT31;61467;50.674;4.618;2024-02-26T13:17:10;6.55;84.06
72650;SHT31;61467;50.674;4.618;2024-02-26T13:19:37;6.63;83.70
72650;SHT31;61467;50.674;4.618;2024-02-26T13:22:04;6.34;84.35
72650;SHT31;61467;50.674;4.618;2024-02-26T13:24:32;6.16;85.24
72650;SHT31;61467;50.674;4.618;2024-02-26T13:26:59;6.29;84.83
72650;SHT31;61467;50.674;4.618;2024-02-26T13:29:27;6.44;84.54
72650;SHT31;61467;50.674;4.618;2024-02-26T13:31:55;6.38;84.61
72650;SHT31;61467;50.674;4.618;2024-02-26T13:34:24;6.43;84.80
72650;SHT31;61467;50.674;4.618;2024-02-26T13:36:52;6.58;84.31
72650;SHT31;61467;50.674;4.618;2024-02-26T13:39:22;6.45;84.66
72650;SHT31;61467;50.674;4.618;2024-02-26T13:41:50;6.17;86.11
72650;SHT31;61467;50.674;4.618;2024-02-26T13:44:17;6.34;86.31
72650;SHT31;61467;50.674;4.618;2024-02-26T13:46:45;6.43;85.53
72650;SHT31;61467;50.674;4.618;2024-02-26T13:49:12;6.34;85.72
72650;SHT31;61467;50.674;4.618;2024-02-26T13:51:39;6.23;86.08
72650;SHT31;61467;50.674;4.618;2024-02-26T13:54:06;6.38;85.90
72650;SHT31;61467;50.674;4.618;2024-02-26T13:56:33;6.30;86.02
72650;SHT31;61467;50.674;4.618;2024-02-26T13:59:00;6.34;86.46
72650;SHT31;61467;50.674;4.618;2024-02-26T14:01:26;6.36;85.79
72650;SHT31;61467;50.674;4.618;2024-02-26T14:03:54;6.16;86.33
72650;SHT31;61467;50.674;4.618;2024-02-26T14:06:23;6.17;86.89
72650;SHT31;61467;50.674;4.618;2024-02-26T14:08:50;6.22;86.10
72650;SHT31;61467;50.674;4.618;2024-02-26T14:11:16;6.34;86.08
72650;SHT31;61467;50.674;4.618;2024-02-26T14:13:43;6.45;85.70
72650;SHT31;61467;50.674;4.618;2024-02-26T14:16:12;6.32;86.05
72650;SHT31;61467;50.674;4.618;2024-02-26T14:18:39;6.14;85.92
72650;SHT31;61467;50.674;4.618;2024-02-26T14:21:07;6.13;85.98
72650;SHT31;61467;50.674;4.618;2024-02-26T14:23:34;6.07;86.58
72650;SHT31;61467;50.674;4.618;2024-02-26T14:26:00;6.14;86.64
72650;SHT31;61467;50.674;4.618;2024-02-26T14:28:27;6.17;86.29
72650;SHT31;61467;50.674;4.618;2024-02-26T14:30:54;6.22;85.79
72650;SHT31;61467;50.674;4.618;2024-02-26T14:33:21;6.40;85.75
72650;SHT31;61467;50.674;4.618;2024-02-26T14:35:48;6.23;85.58
72650;SHT31;61467;50.674;4.618;2024-02-26T14:38:16;6.36;85.60
72650;SHT31;61467;50.674;4.618;2024-02-26T14:40:43;6.37;85.46
72650;SHT31;61467;50.674;4.618;2024-02-26T14:43:10;6.24;85.66
72650;SHT31;61467;50.674;4.618;2024-02-26T14:45:36;6.22;85.99
72650;SHT31;61467;50.674;4.618;2024-02-26T14:48:05;6.13;86.23
72650;SHT31;61467;50.674;4.618;2024-02-26T14:50:33;6.24;86.00
72650;SHT31;61467;50.674;4.618;2024-02-26T14:53:00;6.37;85.72
72650;SHT31;61467;50.674;4.618;2024-02-26T14:55:29;6.41;85.62
72650;SHT31;61467;50.674;4.618;2024-02-26T14:57:55;6.45;85.21
72650;SHT31;61467;50.674;4.618;2024-02-26T15:00:22;6.27;85.45
72650;SHT31;61467;50.674;4.618;2024-02-26T15:02:49;6.23;86.11
72650;SHT31;61467;50.674;4.618;2024-02-26T15:05:17;6.07;86.16
72650;SHT31;61467;50.674;4.618;2024-02-26T15:07:45;6.14;86.65
72650;SHT31;61467;50.674;4.618;2024-02-26T15:10:12;6.09;86.35
72650;SHT31;61467;50.674;4.618;2024-02-26T15:12:40;6.07;86.66
72650;SHT31;61467;50.674;4.618;2024-02-26T15:15:08;6.03;86.75
72650;SHT31;61467;50.674;4.618;2024-02-26T15:17:35;6.07;86.33
72650;SHT31;61467;50.674;4.618;2024-02-26T15:20:02;6.32;86.24
72650;SHT31;61467;50.674;4.618;2024-02-26T15:22:29;6.09;87.01
72650;SHT31;61467;50.674;4.618;2024-02-26T15:24:55;6.10;87.08
72650;SHT31;61467;50.674;4.618;2024-02-26T15:27:22;6.13;87.17
72650;SHT31;61467;50.674;4.618;2024-02-26T15:29:51;6.10;86.85
72650;SHT31;61467;50.674;4.618;2024-02-26T15:32:23;6.01;87.48
72650;SHT31;61467;50.674;4.618;2024-02-26T15:34:52;6.12;87.39
72650;SHT31;61467;50.674;4.618;2024-02-26T15:37:18;6.07;86.98
72650;SHT31;61467;50.674;4.618;2024-02-26T15:39:45;6.17;86.90
72650;SHT31;61467;50.674;4.618;2024-02-26T15:42:12;6.26;86.91
72650;SHT31;61467;50.674;4.618;2024-02-26T15:44:39;6.10;87.29
72650;SHT31;61467;50.674;4.618;2024-02-26T15:47:07;6.05;87.17